sensor_id;sensor_type;location;lat;lon;timestamp;P1;durP1;ratioP1;P2;durP2;ratioP2
43682;SDS011;29285;52.128;21.060;2022-10-22T19:53:01;29.97;;;20.53;;
43682;SDS011;29285;52.128;21.060;2022-10-22T19:58:03;23.62;;;18.35;;
43682;SDS011;29285;52.128;21.060;2022-10-22T20:03:04;25.65;;;18.62;;
43682;SDS011;29285;52.128;21.060;2022-10-22T20:08:05;25.70;;;19.50;;
43682;SDS011;29285;52.128;21.060;2022-10-22T20:13:06;29.18;;;20.32;;
43682;SDS011;29285;52.128;21.060;2022-10-22T20:18:08;21.87;;;17.30;;
43682;SDS011;29285;52.128;21.060;2022-10-22T20:23:09;21.87;;;17.00;;
43682;SDS011;29285;52.128;21.060;2022-10-22T20:28:14;19.82;;;16.15;;
43682;SDS011;29285;52.128;21.060;2022-10-22T20:33:16;18.82;;;15.05;;
43682;SDS011;29285;52.128;21.060;2022-10-22T20:38:17;18.35;;;14.03;;
43682;SDS011;29285;52.128;21.060;2022-10-22T20:43:18;14.98;;;12.85;;
43682;SDS011;29285;52.128;21.060;2022-10-22T20:48:20;18.30;;;13.43;;
43682;SDS011;29285;52.128;21.060;2022-10-22T20:53:27;16.17;;;12.45;;
43682;SDS011;29285;52.128;21.060;2022-10-22T20:58:28;13.55;;;10.68;;
43682;SDS011;29285;52.128;21.060;2022-10-22T21:03:30;15.03;;;12.80;;
43682;SDS011;29285;52.128;21.060;2022-10-22T21:08:32;14.68;;;11.18;;
43682;SDS011;29285;52.128;21.060;2022-10-22T21:13:33;16.15;;;12.98;;
43682;SDS011;29285;52.128;21.060;2022-10-22T21:18:35;15.28;;;11.43;;
43682;SDS011;29285;52.128;21.060;2022-10-22T21:23:37;17.55;;;13.53;;
43682;SDS011;29285;52.128;21.060;2022-10-22T21:28:39;12.98;;;10.65;;
43682;SDS011;29285;52.128;21.060;2022-10-22T21:33:41;17.62;;;12.10;;
43682;SDS011;29285;52.128;21.060;2022-10-22T21:38:42;18.82;;;13.80;;
43682;SDS011;29285;52.128;21.060;2022-10-22T21:43:43;20.40;;;12.88;;
43682;SDS011;29285;52.128;21.060;2022-10-22T21:48:46;21.07;;;15.08;;
43682;SDS011;29285;52.128;21.060;2022-10-22T21:53:56;19.50;;;13.13;;
43682;SDS011;29285;52.128;21.060;2022-10-22T21:58:58;20.23;;;13.28;;
43682;SDS011;29285;52.128;21.060;2022-10-22T22:04:00;19.10;;;13.15;;
43682;SDS011;29285;52.128;21.060;2022-10-22T22:09:03;22.25;;;14.07;;
43682;SDS011;29285;52.128;21.060;2022-10-22T22:14:05;21.93;;;14.13;;
43682;SDS011;29285;52.128;21.060;2022-10-22T22:19:07;24.35;;;15.08;;
43682;SDS011;29285;52.128;21.060;2022-10-22T22:24:10;23.92;;;14.50;;
43682;SDS011;29285;52.128;21.060;2022-10-22T22:29:13;19.30;;;13.90;;
43682;SDS011;29285;52.128;21.060;2022-10-22T22:34:15;21.80;;;14.80;;
43682;SDS011;29285;52.128;21.060;2022-10-22T22:39:18;24.47;;;17.23;;
43682;SDS011;29285;52.128;21.060;2022-10-22T22:44:23;22.02;;;15.35;;
43682;SDS011;29285;52.128;21.060;2022-10-22T22:49:24;21.65;;;13.70;;
43682;SDS011;29285;52.128;21.060;2022-10-22T22:54:26;23.20;;;16.27;;
43682;SDS011;29285;52.128;21.060;2022-10-22T22:59:29;18.87;;;15.18;;
43682;SDS011;29285;52.128;21.060;2022-10-22T23:04:30;18.70;;;14.45;;
43682;SDS011;29285;52.128;21.060;2022-10-22T23:09:31;20.30;;;15.35;;
43682;SDS011;29285;52.128;21.060;2022-10-22T23:14:32;18.98;;;15.08;;
43682;SDS011;29285;52.128;21.060;2022-10-22T23:19:34;21.23;;;16.60;;
43682;SDS011;29285;52.128;21.060;2022-10-22T23:24:35;18.73;;;14.93;;
43682;SDS011;29285;52.128;21.060;2022-10-22T23:29:38;18.95;;;14.70;;
43682;SDS011;29285;52.128;21.060;2022-10-22T23:34:39;17.40;;;13.98;;
43682;SDS011;29285;52.128;21.060;2022-10-22T23:39:40;16.30;;;13.90;;
43682;SDS011;29285;52.128;21.060;2022-10-22T23:44:41;16.73;;;14.15;;
43682;SDS011;29285;52.128;21.060;2022-10-22T23:49:43;14.47;;;12.75;;
43682;SDS011;29285;52.128;21.060;2022-10-22T23:54:44;19.25;;;14.83;;
43682;SDS011;29285;52.128;21.060;2022-10-22T23:59:45;19.07;;;15.80;;
